Glovis Chorus — D7OR — position and weather

sailwx.info

Track history (hours):
 
Tides and Currents Weather Stations Pressure Air Temp Water Temp Dewpoint Dewpoint Depression Visibility Wind Speed Wind Dir Waves Ship Positions

Glovis Chorus

Last reported at 2017-Dec-28 00:55 UTC. Time now 2018-Jan-22 18:07 UTC.
Position N 31°06' E 122°18'.
Warning: this ship's position is 25 days out of date.

Length 200 m; draft 7.8 m.

Type: Cargo ship. MMSI: 440292000.

Date/timePositionNaut miles runAvg speedWind from/ knotsBaromVisibWave heightAir tempDewpointWater temp
2017-Dec-28 00:55N 31°06' E 122°18'1314.9
2017-Dec-28 00:03N 31°14' E 122°06'114.4
2017-Dec-27 23:58N 31°14' E 122°04'914.5
2017-Dec-27 23:22N 31°16' E 121°54'1113.3
2017-Dec-27 22:33N 31°19' E 121°42'1 8.6
2017-Dec-27 22:28N 31°19' E 121°42'1 0.1
2017-Dec-27 10:05N 31°20' E 121°41'1 7.0
2017-Dec-27 09:59N 31°20' E 121°42'4 8.5
2017-Dec-27 09:30N 31°18' E 121°46'610.7
2017-Dec-27 08:55N 31°16' E 121°53'510.8
2017-Dec-27 08:29N 31°15' E 121°58'5 9.8
2017-Dec-27 07:58N 31°14' E 122°04'5 9.8
2017-Dec-27 07:25N 31°11' E 122°10'10 9.5
2017-Dec-27 06:24N 31°06' E 122°19'  
2017-Dec-19 10:27N 41°19' E 140°13'816.6
2017-Dec-19 09:59N 41°24' E 140°22'815.9
2017-Dec-19 09:30N 41°28' E 140°31'917.4
2017-Dec-19 09:00N 41°33' E 140°40'917.4
2017-Dec-19 08:30N 41°38' E 140°49'917.0
2017-Dec-19 08:00N 41°39' E 141°00'917.1
2017-Dec-19 07:30N 41°40' E 141°12'816.3
2017-Dec-19 07:00N 41°40' E 141°23'  
Track history (hours):
 
Tides and Currents Weather Stations Pressure Air Temp Water Temp Dewpoint Dewpoint Depression Visibility Wind Speed Wind Dir Waves Ship Positions

Glovis Chorus

Last reported at 2017-Dec-28 00:55 UTC. Time now 2018-Jan-22 18:07 UTC.
Position N 31°06' E 122°18'.
Warning: this ship's position is 25 days out of date.

Length 200 m; draft 7.8 m.

Type: Cargo ship. MMSI: 440292000.

Date/timePositionNaut miles runAvg speedWind from/ knotsBaromVisibWave heightAir tempDewpointWater temp
2017-Dec-28 00:55N 31°06' E 122°18'1314.9
2017-Dec-28 00:03N 31°14' E 122°06'114.4
2017-Dec-27 23:58N 31°14' E 122°04'914.5
2017-Dec-27 23:22N 31°16' E 121°54'1113.3
2017-Dec-27 22:33N 31°19' E 121°42'1 8.6
2017-Dec-27 22:28N 31°19' E 121°42'1 0.1
2017-Dec-27 10:05N 31°20' E 121°41'1 7.0
2017-Dec-27 09:59N 31°20' E 121°42'4 8.5
2017-Dec-27 09:30N 31°18' E 121°46'610.7
2017-Dec-27 08:55N 31°16' E 121°53'510.8
2017-Dec-27 08:29N 31°15' E 121°58'5 9.8
2017-Dec-27 07:58N 31°14' E 122°04'5 9.8
2017-Dec-27 07:25N 31°11' E 122°10'10 9.5
2017-Dec-27 06:24N 31°06' E 122°19'  
2017-Dec-19 10:27N 41°19' E 140°13'816.6
2017-Dec-19 09:59N 41°24' E 140°22'815.9
2017-Dec-19 09:30N 41°28' E 140°31'917.4
2017-Dec-19 09:00N 41°33' E 140°40'917.4
2017-Dec-19 08:30N 41°38' E 140°49'917.0
2017-Dec-19 08:00N 41°39' E 141°00'917.1
2017-Dec-19 07:30N 41°40' E 141°12'816.3
2017-Dec-19 07:00N 41°40' E 141°23'  

Dump ship's entire track history